Time;durP1;ratioP1;P1;durP2;ratioP2;P2;SDS_P1;SDS_P2;PMS_P1;PMS_P2;Temp;Humidity;BMP_temperature;BMP_pressure;BME280_temperature;BME280_humidity;BME280_pressure;Samples;Min_cycle;Max_cycle;Signal;HPM_P1;HPM_P2
2021/08/29 00:00:10;;;;;;;3.85;2.00;;;20.60;59.90;;;;;;4840891;29;20034;-61
2021/08/29 00:02:35;;;;;;;4.03;2.05;;;20.60;60.00;;;;;;4841035;29;20042;-59
2021/08/29 00:05:01;;;;;;;4.57;2.05;;;20.60;60.10;;;;;;4840959;29;20036;-60
2021/08/29 00:07:27;;;;;;;3.92;2.00;;;20.60;60.20;;;;;;4840660;29;20497;-60
2021/08/29 00:09:53;;;;;;;3.50;1.80;;;20.50;60.30;;;;;;4840897;29;20038;-60
2021/08/29 00:12:18;;;;;;;3.90;2.00;;;20.50;60.40;;;;;;4840885;29;20056;-60
2021/08/29 00:14:44;;;;;;;3.80;1.88;;;20.40;60.60;;;;;;4840858;29;20030;-61
2021/08/29 00:17:10;;;;;;;4.07;2.08;;;20.40;60.70;;;;;;4840452;29;20057;-61
2021/08/29 00:19:36;;;;;;;3.53;1.83;;;20.40;60.90;;;;;;4840778;29;20109;-60
2021/08/29 00:22:03;;;;;;;3.20;1.70;;;20.40;60.90;;;;;;4840468;29;20034;-60
2021/08/29 00:24:28;;;;;;;3.60;1.92;;;20.40;61.00;;;;;;4840676;29;20409;-60
2021/08/29 00:26:54;;;;;;;4.05;1.90;;;20.40;61.00;;;;;;4840955;29;20033;-60
2021/08/29 00:29:19;;;;;;;3.72;1.90;;;20.40;61.10;;;;;;4840562;29;20038;-60
2021/08/29 00:31:45;;;;;;;3.60;1.75;;;20.40;61.20;;;;;;4840663;29;20499;-60
2021/08/29 00:34:11;;;;;;;3.35;1.80;;;20.40;61.20;;;;;;4840900;29;20083;-60
2021/08/29 00:36:36;;;;;;;4.45;2.00;;;20.40;61.20;;;;;;4842746;29;20045;-60
2021/08/29 00:39:02;;;;;;;3.38;1.73;;;20.40;61.20;;;;;;4843353;29;20045;-60
2021/08/29 00:41:28;;;;;;;3.28;1.90;;;20.40;61.20;;;;;;4844493;29;20034;-61
2021/08/29 00:43:55;;;;;;;3.63;1.90;;;20.40;61.20;;;;;;4844035;29;20105;-60
2021/08/29 00:46:21;;;;;;;4.10;1.95;;;20.40;61.30;;;;;;4844493;29;20034;-60
2021/08/29 00:48:49;;;;;;;3.45;1.80;;;20.40;61.30;;;;;;4844515;29;20101;-59
2021/08/29 00:51:15;;;;;;;3.22;1.83;;;20.40;61.30;;;;;;4844563;29;20094;-60
2021/08/29 00:54:01;;;;;;;3.13;1.80;;;20.40;61.30;;;;;;4843890;29;20030;-59
2021/08/29 00:56:27;;;;;;;3.42;1.90;;;20.40;61.70;;;;;;4826067;29;20156;-59
2021/08/29 00:58:54;;;;;;;3.10;1.75;;;20.40;61.40;;;;;;4826108;29;20534;-60
2021/08/29 01:01:27;;;;;;;2.70;1.60;;;20.30;61.40;;;;;;4825963;29;20038;-60
2021/08/29 01:03:59;;;;;;;2.95;1.70;;;20.30;61.50;;;;;;4827294;29;20037;-60
2021/08/29 01:06:39;;;;;;;3.05;1.65;;;20.30;61.50;;;;;;4842410;29;20386;-60
2021/08/29 01:09:07;;;;;;;3.00;1.70;;;20.30;61.60;;;;;;4843814;29;20034;-60
2021/08/29 01:11:36;;;;;;;3.72;1.70;;;20.20;61.60;;;;;;4843985;29;20022;-60
2021/08/29 01:14:08;;;;;;;3.60;1.85;;;20.20;61.70;;;;;;4843980;29;20030;-59
2021/08/29 01:16:35;;;;;;;;;;;20.20;61.90;;;;;;4844473;29;20482;-59
2021/08/29 01:19:05;;;;;;;2.70;1.58;;;20.10;62.70;;;;;;4843785;29;19931;-60
2021/08/29 01:21:35;;;;;;;2.88;1.70;;;20.10;61.90;;;;;;4843511;29;20034;-59
2021/08/29 01:24:08;;;;;;;4.25;1.88;;;20.00;62.10;;;;;;4844012;29;20029;-59
2021/08/29 01:26:55;;;;;;;3.58;1.90;;;20.00;62.20;;;;;;4843975;29;20104;-60
2021/08/29 01:29:26;;;;;;;3.10;1.73;;;20.00;63.10;;;;;;4843364;29;20038;-60
2021/08/29 01:31:52;;;;;;;3.10;1.67;;;19.90;62.40;;;;;;4842386;29;20030;-60
2021/08/29 01:34:19;;;;;;;3.38;1.77;;;19.90;63.10;;;;;;4843441;29;20030;-60
2021/08/29 01:36:49;;;;;;;3.03;1.60;;;19.90;62.50;;;;;;4844066;29;20038;-60
2021/08/29 01:39:15;;;;;;;3.60;1.83;;;19.90;62.60;;;;;;4844021;29;20813;-61
2021/08/29 01:41:45;;;;;;;3.30;1.75;;;19.90;62.70;;;;;;4843727;29;20041;-61
2021/08/29 01:44:11;;;;;;;3.17;1.70;;;19.90;62.70;;;;;;4843240;29;20446;-60
2021/08/29 01:46:40;;;;;;;3.83;1.77;;;19.90;62.60;;;;;;4843641;29;20059;-60
2021/08/29 01:49:08;;;;;;;2.92;1.60;;;19.90;62.50;;;;;;4839394;29;20045;-60
2021/08/29 01:51:34;;;;;;;3.47;1.70;;;19.90;62.40;;;;;;4843537;29;20030;-60
2021/08/29 01:54:00;;;;;;;2.92;1.50;;;19.90;62.40;;;;;;4843444;29;20037;-60
2021/08/29 01:56:26;;;;;;;2.78;1.42;;;20.00;62.40;;;;;;4843404;29;20390;-60
2021/08/29 01:58:52;;;;;;;2.83;1.50;;;20.00;62.30;;;;;;4843489;29;20037;-60
2021/08/29 02:01:18;;;;;;;3.05;1.60;;;20.00;62.30;;;;;;4843167;29;20030;-60
2021/08/29 02:03:44;;;;;;;3.70;1.80;;;20.00;62.30;;;;;;4842925;29;20050;-60
2021/08/29 02:06:12;;;;;;;2.70;1.50;;;20.00;62.40;;;;;;4840338;29;20044;-60
2021/08/29 02:08:42;;;;;;;3.35;1.63;;;20.00;62.40;;;;;;4843088;29;20042;-60
2021/08/29 02:11:09;;;;;;;3.10;1.67;;;19.90;62.50;;;;;;4843275;29;20017;-60
2021/08/29 02:13:40;;;;;;;3.00;1.50;;;19.90;62.60;;;;;;4842868;29;20495;-60
2021/08/29 02:16:10;;;;;;;3.72;1.80;;;19.90;62.60;;;;;;4842964;29;20026;-60
2021/08/29 02:18:37;;;;;;;3.00;1.65;;;19.90;62.70;;;;;;4842767;29;20053;-60
2021/08/29 02:21:04;;;;;;;3.33;1.80;;;19.90;62.80;;;;;;4842581;29;20041;-60
2021/08/29 02:23:30;;;;;;;3.08;1.70;;;19.90;62.90;;;;;;4842990;29;20056;-61
2021/08/29 02:25:56;;;;;;;2.50;1.60;;;19.90;62.90;;;;;;4842756;29;20478;-61
2021/08/29 02:28:23;;;;;;;2.88;1.60;;;19.90;62.80;;;;;;4842778;29;20026;-59
2021/08/29 02:30:49;;;;;;;3.25;1.80;;;19.90;62.90;;;;;;4842824;29;20108;-60
2021/08/29 02:33:15;;;;;;;3.22;1.80;;;20.00;63.00;;;;;;4839412;29;20117;-60
2021/08/29 02:35:42;;;;;;;3.13;1.50;;;20.00;63.00;;;;;;4842393;29;20055;-59
2021/08/29 02:38:09;;;;;;;2.97;1.58;;;20.00;63.00;;;;;;4842759;29;20040;-59
2021/08/29 02:40:40;;;;;;;2.47;1.58;;;20.00;63.00;;;;;;4842639;29;20040;-59
2021/08/29 02:43:07;;;;;;;3.05;1.70;;;20.00;63.00;;;;;;4842717;29;20112;-60
2021/08/29 02:45:34;;;;;;;3.63;1.60;;;19.90;63.00;;;;;;4842036;29;20030;-60
2021/08/29 02:48:01;;;;;;;2.97;1.60;;;19.90;63.10;;;;;;4826043;29;20382;-60
2021/08/29 02:50:28;;;;;;;2.97;1.58;;;19.90;63.10;;;;;;4842478;29;20034;-60
2021/08/29 02:52:54;;;;;;;2.53;1.52;;;19.90;63.20;;;;;;4842275;29;20090;-60
2021/08/29 02:55:20;;;;;;;2.95;1.70;;;19.90;63.20;;;;;;4842130;29;20069;-60
2021/08/29 02:57:51;;;;;;;3.70;1.80;;;19.90;63.20;;;;;;4841832;29;20482;-60
2021/08/29 03:00:17;;;;;;;2.88;1.60;;;19.80;63.20;;;;;;4842227;29;20038;-60
2021/08/29 03:02:43;;;;;;;3.38;1.83;;;19.90;63.20;;;;;;4842248;29;20086;-60
2021/08/29 03:05:09;;;;;;;3.10;1.63;;;19.80;63.10;;;;;;4841854;29;20026;-60
2021/08/29 03:07:35;;;;;;;3.65;1.73;;;19.90;63.20;;;;;;4842067;29;20478;-60
2021/08/29 03:10:02;;;;;;;2.70;1.60;;;19.80;63.20;;;;;;4842204;29;20151;-59
2021/08/29 03:12:28;;;;;;;3.80;1.83;;;19.80;63.20;;;;;;4842408;29;20037;-60
2021/08/29 03:14:54;;;;;;;3.92;1.92;;;19.80;63.40;;;;;;4841757;29;20034;-60
2021/08/29 03:17:21;;;;;;;3.28;1.88;;;19.70;63.50;;;;;;4841956;29;20065;-60
2021/08/29 03:19:50;;;;;;;3.60;1.80;;;19.70;63.60;;;;;;4842065;29;20034;-59
2021/08/29 03:22:16;;;;;;;2.92;1.77;;;19.60;63.70;;;;;;4841701;29;20390;-59
2021/08/29 03:24:42;;;;;;;3.78;1.80;;;19.60;63.80;;;;;;4841390;29;20034;-60
2021/08/29 03:27:09;;;;;;;3.00;1.70;;;19.60;63.90;;;;;;4841527;29;20030;-60
2021/08/29 03:29:34;;;;;;;3.88;1.95;;;19.70;64.00;;;;;;4841755;29;20042;-59
2021/08/29 03:32:00;;;;;;;2.75;1.67;;;19.70;64.10;;;;;;4841220;29;20104;-59
2021/08/29 03:34:28;;;;;;;3.30;1.70;;;19.70;64.10;;;;;;4838833;29;20144;-60
2021/08/29 03:36:55;;;;;;;3.58;1.80;;;19.70;64.20;;;;;;4841398;29;20038;-60
2021/08/29 03:39:24;;;;;;;3.08;1.70;;;19.80;64.20;;;;;;4841731;29;20049;-60
2021/08/29 03:41:54;;;;;;;3.45;1.70;;;19.90;64.20;;;;;;4841460;29;20040;-60
2021/08/29 03:44:20;;;;;;;3.60;1.95;;;19.90;64.10;;;;;;4841373;29;20041;-61
2021/08/29 03:46:46;;;;;;;3.10;1.60;;;20.00;64.10;;;;;;4841200;29;20030;-59
2021/08/29 03:49:11;;;;;;;4.18;1.80;;;20.00;64.10;;;;;;4841356;29;20030;-60
2021/08/29 03:51:40;;;;;;;3.55;1.80;;;20.00;64.00;;;;;;4841487;29;20033;-59
2021/08/29 03:54:07;;;;;;;3.30;1.80;;;20.10;64.10;;;;;;4841376;29;20038;-59
2021/08/29 03:56:33;;;;;;;3.25;1.70;;;20.10;64.00;;;;;;4841160;29;20113;-61
2021/08/29 03:58:59;;;;;;;3.08;1.60;;;20.20;64.00;;;;;;4841684;29;20102;-61
2021/08/29 04:01:25;;;;;;;3.15;1.70;;;20.30;63.90;;;;;;4841091;29;20495;-60
2021/08/29 04:03:51;;;;;;;3.28;1.90;;;20.30;63.80;;;;;;4840828;29;20042;-60
2021/08/29 04:06:17;;;;;;;2.95;1.80;;;20.40;63.80;;;;;;4836060;29;20038;-59
2021/08/29 04:08:48;;;;;;;4.03;2.17;;;20.50;63.80;;;;;;4840683;29;20034;-60
2021/08/29 04:11:14;;;;;;;3.67;2.17;;;20.50;63.80;;;;;;4840673;29;20104;-60
2021/08/29 04:13:40;;;;;;;3.55;1.90;;;20.60;63.70;;;;;;4841153;29;20034;-60
2021/08/29 04:16:06;;;;;;;3.60;2.00;;;20.60;63.60;;;;;;4839815;29;20503;-60
2021/08/29 04:18:40;;;;;;;3.83;2.20;;;20.60;63.60;;;;;;4840868;29;20062;-60
2021/08/29 04:21:07;;;;;;;3.40;1.80;;;20.70;63.50;;;;;;4840988;29;20040;-60
2021/08/29 04:23:33;;;;;;;3.38;1.80;;;20.70;63.50;;;;;;4840908;29;20466;-60
2021/08/29 04:25:59;;;;;;;3.67;1.90;;;20.80;63.50;;;;;;4840422;29;20038;-60
2021/08/29 04:28:25;;;;;;;3.85;2.00;;;20.80;63.40;;;;;;4840828;29;20389;-61
2021/08/29 04:30:52;;;;;;;4.00;2.10;;;20.90;63.40;;;;;;4840801;29;20084;-61
2021/08/29 04:33:18;;;;;;;3.90;2.30;;;20.90;63.30;;;;;;4840870;29;20081;-60
2021/08/29 04:35:44;;;;;;;3.72;2.08;;;21.00;63.20;;;;;;4840556;29;20041;-60
2021/08/29 04:38:09;;;;;;;4.07;2.08;;;21.00;63.10;;;;;;4840449;29;20037;-60
2021/08/29 04:40:35;;;;;;;3.95;2.28;;;21.00;63.00;;;;;;4841005;29;20034;-60
2021/08/29 04:43:01;;;;;;;3.92;2.10;;;21.00;63.00;;;;;;4840675;29;20042;-60
2021/08/29 04:45:27;;;;;;;11.07;9.23;;;21.00;63.00;;;;;;4840965;29;20124;-60
2021/08/29 04:47:53;;;;;;;10.02;6.50;;;20.90;62.90;;;;;;4840530;29;20452;-60
2021/08/29 04:50:18;;;;;;;7.70;5.53;;;20.90;63.00;;;;;;4840224;29;20026;-60
2021/08/29 04:52:44;;;;;;;5.80;3.90;;;21.00;63.10;;;;;;4840641;29;20042;-59
2021/08/29 04:55:10;;;;;;;5.50;3.45;;;21.00;63.10;;;;;;4840767;29;20022;-60
2021/08/29 04:57:36;;;;;;;4.65;2.95;;;21.00;63.10;;;;;;4839749;29;20100;-60
2021/08/29 05:00:02;;;;;;;5.00;3.10;;;21.00;63.10;;;;;;4839881;29;20030;-61
2021/08/29 05:02:28;;;;;;;5.07;2.92;;;21.00;63.10;;;;;;4839958;29;20452;-60
2021/08/29 05:04:54;;;;;;;4.72;2.70;;;21.00;63.20;;;;;;4839659;29;20116;-60
2021/08/29 05:07:19;;;;;;;4.57;2.60;;;21.00;63.20;;;;;;4839558;29;20040;-60
2021/08/29 05:09:45;;;;;;;4.35;2.50;;;21.10;63.30;;;;;;4839627;29;20109;-60
2021/08/29 05:12:11;;;;;;;4.43;2.50;;;21.10;63.20;;;;;;4839486;29;20037;-60
2021/08/29 05:14:36;;;;;;;4.20;2.50;;;21.20;63.20;;;;;;4839611;29;20033;-60
2021/08/29 05:17:02;;;;;;;4.63;2.70;;;21.20;63.20;;;;;;4840024;29;20030;-61
2021/08/29 05:19:28;;;;;;;4.97;3.30;;;21.30;63.10;;;;;;4839931;29;20034;-60
2021/08/29 05:21:53;;;;;;;4.60;2.95;;;21.30;63.10;;;;;;4842304;29;20042;-61
2021/08/29 05:24:19;;;;;;;4.90;3.00;;;21.30;63.10;;;;;;4841449;29;20034;-60
2021/08/29 05:26:44;;;;;;;4.82;3.00;;;21.30;63.00;;;;;;4834819;29;20041;-61
2021/08/29 05:29:10;;;;;;;4.68;2.78;;;21.40;63.10;;;;;;4843026;29;20026;-61
2021/08/29 05:31:36;;;;;;;5.40;2.78;;;21.40;63.10;;;;;;4843129;29;20116;-60
2021/08/29 05:34:01;;;;;;;5.35;2.72;;;21.50;62.90;;;;;;4843699;29;20033;-60
2021/08/29 05:36:27;;;;;;;5.05;2.63;;;21.60;63.00;;;;;;4843375;29;20030;-61
2021/08/29 05:38:52;;;;;;;4.60;2.90;;;21.70;62.90;;;;;;4843678;29;20037;-60
2021/08/29 05:41:18;;;;;;;5.10;2.85;;;21.70;62.80;;;;;;4843163;29;20037;-60
2021/08/29 05:43:44;;;;;;;4.97;2.95;;;21.80;62.70;;;;;;4843479;29;20030;-62
2021/08/29 05:46:10;;;;;;;6.20;3.90;;;21.90;62.70;;;;;;4843166;29;20055;-60
2021/08/29 05:48:36;;;;;;;6.13;4.00;;;21.90;62.60;;;;;;4843096;29;20057;-60
2021/08/29 05:51:01;;;;;;;5.30;3.65;;;21.90;62.50;;;;;;4843233;29;20037;-60
2021/08/29 05:53:27;;;;;;;6.00;3.30;;;21.90;62.50;;;;;;4842572;29;20034;-60
2021/08/29 05:55:53;;;;;;;5.03;3.28;;;21.90;62.60;;;;;;4842947;29;20040;-59
2021/08/29 05:58:18;;;;;;;5.00;3.22;;;21.90;62.60;;;;;;4842684;29;20052;-60
2021/08/29 06:00:44;;;;;;;5.72;3.70;;;22.00;62.70;;;;;;4842371;29;20055;-61
2021/08/29 06:03:09;;;;;;;5.63;3.50;;;21.90;62.70;;;;;;4841980;29;20129;-60
2021/08/29 06:05:35;;;;;;;5.20;3.30;;;22.00;62.70;;;;;;4840761;29;20048;-59
2021/08/29 06:08:01;;;;;;;5.25;3.08;;;22.00;62.90;;;;;;4842205;29;20049;-60
2021/08/29 06:10:28;;;;;;;5.05;3.00;;;22.10;62.90;;;;;;4842033;29;20167;-59
2021/08/29 06:12:54;;;;;;;4.90;2.90;;;22.10;62.80;;;;;;4842135;29;20030;-60
2021/08/29 06:15:20;;;;;;;4.60;2.90;;;22.10;62.70;;;;;;4843096;29;20022;-60
2021/08/29 06:17:45;;;;;;;4.88;2.95;;;22.20;62.80;;;;;;4842833;29;20128;-60
2021/08/29 06:20:12;;;;;;;5.25;2.97;;;22.30;62.70;;;;;;4842691;29;20082;-61
2021/08/29 06:22:37;;;;;;;5.28;3.10;;;22.30;62.70;;;;;;4842976;29;20026;-60
2021/08/29 06:25:03;;;;;;;4.38;2.75;;;22.40;62.90;;;;;;4842635;29;20050;-60
2021/08/29 06:27:29;;;;;;;4.75;2.97;;;22.40;62.80;;;;;;4842426;29;20105;-60
2021/08/29 06:29:54;;;;;;;5.45;3.05;;;22.50;62.80;;;;;;4842482;29;20186;-61
2021/08/29 06:32:20;;;;;;;8.60;6.57;;;22.70;62.80;;;;;;4841409;29;20109;-60
2021/08/29 06:34:46;;;;;;;7.97;6.00;;;22.80;62.60;;;;;;4841794;29;20038;-61
2021/08/29 06:37:12;;;;;;;6.40;4.80;;;22.90;62.50;;;;;;4842614;29;20492;-61
2021/08/29 06:39:37;;;;;;;6.30;4.43;;;23.00;62.40;;;;;;4842512;29;20030;-62
2021/08/29 06:42:03;;;;;;;5.43;3.70;;;23.10;62.40;;;;;;4842394;29;20171;-62
2021/08/29 06:44:29;;;;;;;6.97;3.42;;;23.30;62.40;;;;;;4843801;29;20113;-60
2021/08/29 06:46:54;;;;;;;5.05;3.33;;;23.50;62.20;;;;;;4847146;29;20034;-61
2021/08/29 06:49:20;;;;;;;7.93;5.72;;;23.60;61.90;;;;;;4842328;29;20241;-61
2021/08/29 06:51:46;;;;;;;13.52;11.98;;;23.80;61.80;;;;;;4842272;29;20026;-61
2021/08/29 06:54:13;;;;;;;10.73;8.32;;;23.90;61.70;;;;;;4841690;29;20026;-61
2021/08/29 06:56:39;;;;;;;8.82;6.85;;;24.10;61.40;;;;;;4842584;29;20045;-61
2021/08/29 06:59:05;;;;;;;7.28;5.13;;;24.40;61.10;;;;;;4842323;29;20036;-61
2021/08/29 07:01:31;;;;;;;6.22;4.43;;;24.50;60.70;;;;;;4842196;29;20061;-61
2021/08/29 07:03:57;;;;;;;6.22;4.30;;;24.60;60.50;;;;;;4842179;29;20026;-61
2021/08/29 07:06:23;;;;;;;5.47;3.83;;;24.60;60.40;;;;;;4841418;29;20037;-61
2021/08/29 07:08:48;;;;;;;5.13;3.55;;;24.80;60.30;;;;;;4841763;29;20025;-62
2021/08/29 07:11:14;;;;;;;5.28;3.65;;;25.00;60.20;;;;;;4842243;29;20026;-60
2021/08/29 07:13:40;;;;;;;5.20;3.40;;;25.10;60.10;;;;;;4842211;29;20030;-61
2021/08/29 07:16:05;;;;;;;5.10;3.70;;;25.20;59.70;;;;;;4840662;29;20030;-61
2021/08/29 07:18:31;;;;;;;5.30;3.60;;;25.30;59.70;;;;;;4838589;29;20042;-63
2021/08/29 07:20:57;;;;;;;4.93;3.30;;;25.40;59.70;;;;;;4841761;29;20030;-61
2021/08/29 07:23:23;;;;;;;5.75;3.53;;;25.60;59.60;;;;;;4841730;29;20490;-60
2021/08/29 07:25:49;;;;;;;5.60;3.38;;;25.70;59.40;;;;;;4841783;29;20082;-61
2021/08/29 07:28:16;;;;;;;5.30;3.67;;;25.90;59.30;;;;;;4841533;29;20030;-62
2021/08/29 07:30:43;;;;;;;5.05;3.40;;;26.10;59.00;;;;;;4841786;29;20390;-61
2021/08/29 07:33:08;;;;;;;5.10;3.50;;;26.20;58.90;;;;;;4841159;29;20038;-61
2021/08/29 07:35:34;;;;;;;5.60;4.10;;;26.30;58.70;;;;;;4841730;29;20501;-62
2021/08/29 07:38:00;;;;;;;6.05;3.78;;;26.40;58.60;;;;;;4841717;29;20044;-62
2021/08/29 07:40:25;;;;;;;5.28;3.72;;;26.50;58.50;;;;;;4841312;29;20041;-61
2021/08/29 07:42:52;;;;;;;5.60;3.90;;;26.60;58.20;;;;;;4841052;29;20038;-62
2021/08/29 07:45:18;;;;;;;5.72;3.65;;;26.70;58.10;;;;;;4841188;29;20113;-62
2021/08/29 07:47:43;;;;;;;5.07;3.45;;;26.90;57.90;;;;;;4841342;29;20053;-61
2021/08/29 07:50:09;;;;;;;6.30;4.68;;;27.00;58.30;;;;;;4841492;29;20030;-62
2021/08/29 07:52:35;;;;;;;5.82;4.20;;;27.20;57.50;;;;;;4840978;29;20042;-62
2021/08/29 07:55:01;;;;;;;5.55;3.88;;;27.30;57.20;;;;;;4840865;29;20038;-61
2021/08/29 07:57:26;;;;;;;5.28;3.67;;;27.40;57.00;;;;;;4841305;29;20033;-65
2021/08/29 07:59:52;;;;;;;5.90;4.20;;;27.60;56.90;;;;;;4841409;29;20030;-60
2021/08/29 08:02:18;;;;;;;5.50;3.90;;;27.70;56.70;;;;;;4840303;29;20433;-60
2021/08/29 08:04:43;;;;;;;5.40;3.78;;;27.80;56.50;;;;;;4840773;29;20473;-61
2021/08/29 08:07:11;;;;;;;5.60;4.00;;;27.90;56.30;;;;;;4840941;29;20071;-61
2021/08/29 08:09:37;;;;;;;5.15;3.63;;;28.10;56.20;;;;;;4841207;29;20029;-61
2021/08/29 08:12:03;;;;;;;5.60;3.83;;;28.20;56.10;;;;;;4840986;29;20033;-61
2021/08/29 08:14:29;;;;;;;5.68;3.88;;;28.40;56.00;;;;;;4840543;29;20082;-61
2021/08/29 08:16:54;;;;;;;5.28;3.75;;;28.50;55.70;;;;;;4840963;29;20034;-61
2021/08/29 08:19:20;;;;;;;5.57;3.63;;;28.70;55.60;;;;;;4840783;29;20060;-60
2021/08/29 08:21:46;;;;;;;5.45;3.70;;;28.90;55.60;;;;;;4839127;29;20490;-61
2021/08/29 08:24:11;;;;;;;5.32;3.63;;;29.00;55.30;;;;;;4842794;29;20036;-61
2021/08/29 08:26:37;;;;;;;5.90;3.75;;;29.20;55.00;;;;;;4851707;29;20113;-60
2021/08/29 08:29:03;;;;;;;6.43;3.80;;;29.40;54.80;;;;;;4839735;29;20066;-60
2021/08/29 08:31:28;;;;;;;6.47;3.88;;;29.50;54.50;;;;;;4840421;29;20069;-64
2021/08/29 08:33:54;;;;;;;5.03;3.70;;;29.70;54.40;;;;;;4840335;29;20044;-61
2021/08/29 08:36:20;;;;;;;5.75;4.07;;;29.80;54.20;;;;;;4840495;29;20034;-61
2021/08/29 08:38:45;;;;;;;7.00;5.65;;;29.90;54.00;;;;;;4839418;29;20030;-60
2021/08/29 08:41:11;;;;;;;6.25;4.82;;;30.10;53.90;;;;;;4822450;29;20083;-60
2021/08/29 08:43:37;;;;;;;6.35;4.70;;;30.30;53.60;;;;;;4837704;29;20037;-60
2021/08/29 08:46:03;;;;;;;5.82;4.32;;;30.40;53.30;;;;;;4840185;29;20086;-62
2021/08/29 08:48:29;;;;;;;5.75;4.28;;;30.60;53.20;;;;;;4840384;29;20026;-62
2021/08/29 08:50:58;;;;;;;5.63;4.32;;;30.70;53.50;;;;;;4840702;29;20061;-61
2021/08/29 08:53:25;;;;;;;5.55;4.35;;;30.90;52.50;;;;;;4840696;29;20066;-61
2021/08/29 08:55:52;;;;;;;5.88;4.53;;;31.00;52.30;;;;;;4841287;29;20053;-60
2021/08/29 08:58:18;;;;;;;6.10;4.60;;;31.20;52.10;;;;;;4844320;29;20482;-60
2021/08/29 09:00:47;;;;;;;5.35;3.88;;;31.40;51.90;;;;;;4843087;29;20089;-60
2021/08/29 09:03:15;;;;;;;5.88;4.32;;;31.50;51.60;;;;;;4827372;29;20397;-62
2021/08/29 09:05:41;;;;;;;5.75;4.53;;;31.70;51.40;;;;;;4857489;29;20055;-60
2021/08/29 09:08:07;;;;;;;6.80;5.10;;;31.90;51.10;;;;;;4843718;29;20474;-61
2021/08/29 09:10:33;;;;;;;8.30;4.97;;;32.10;50.80;;;;;;4844001;29;20490;-63
2021/08/29 09:13:01;;;;;;;6.30;4.75;;;32.20;50.50;;;;;;4843893;29;20026;-62
2021/08/29 09:15:28;;;;;;;6.22;4.72;;;32.40;50.30;;;;;;4841063;29;20109;-61
2021/08/29 09:17:54;;;;;;;6.68;5.28;;;32.60;50.10;;;;;;4842921;29;20050;-61
2021/08/29 09:20:36;;;;;;;6.40;4.82;;;32.70;49.70;;;;;;4843901;29;20026;-60
2021/08/29 09:23:04;;;;;;;6.07;4.70;;;32.90;49.30;;;;;;4843715;29;20030;-61
2021/08/29 09:25:35;;;;;;;6.18;4.40;;;33.10;49.40;;;;;;4843193;29;20026;-62
2021/08/29 09:28:02;;;;;;;6.00;4.20;;;33.30;49.10;;;;;;4843528;29;20074;-63
2021/08/29 09:30:30;;;;;;;6.00;4.38;;;33.50;49.00;;;;;;4843323;29;20034;-60
2021/08/29 09:33:03;;;;;;;5.85;4.50;;;33.60;48.70;;;;;;4843386;29;20032;-62
2021/08/29 09:35:34;;;;;;;6.47;4.55;;;33.80;48.40;;;;;;4843576;29;20022;-62
2021/08/29 09:38:01;;;;;;;5.40;4.22;;;33.90;48.20;;;;;;4839109;29;20037;-61
2021/08/29 09:40:29;;;;;;;6.10;4.22;;;34.00;48.00;;;;;;4843396;29;20042;-61
2021/08/29 09:42:56;;;;;;;6.13;4.30;;;34.20;47.80;;;;;;4843458;29;20049;-61
2021/08/29 09:45:28;;;;;;;5.97;4.68;;;34.40;47.60;;;;;;4843660;29;20475;-60
2021/08/29 09:48:03;;;;;;;5.78;4.40;;;34.60;47.30;;;;;;4843393;29;20105;-61
2021/08/29 09:50:31;;;;;;;6.60;4.40;;;34.70;47.00;;;;;;4843163;29;20478;-61
2021/08/29 09:53:05;;;;;;;6.00;4.43;;;34.90;46.80;;;;;;4843459;29;20032;-62
2021/08/29 09:55:32;;;;;;;5.90;4.38;;;35.00;46.60;;;;;;4843657;29;20058;-61
2021/08/29 09:57:58;;;;;;;5.97;4.60;;;35.00;46.40;;;;;;4843288;29;20034;-61
2021/08/29 10:00:24;;;;;;;5.70;4.43;;;35.10;46.30;;;;;;4842980;29;20028;-61
2021/08/29 10:03:01;;;;;;;6.07;4.80;;;35.20;46.00;;;;;;4843148;29;20030;-60
2021/08/29 10:05:27;;;;;;;6.07;4.80;;;35.30;45.30;;;;;;4843157;29;20026;-61
2021/08/29 10:08:00;;;;;;;5.68;4.53;;;35.40;45.70;;;;;;4840183;29;20363;-61
2021/08/29 10:10:28;;;;;;;6.40;4.80;;;35.50;45.50;;;;;;4842934;29;20105;-61
2021/08/29 10:12:55;;;;;;;5.90;4.80;;;35.60;45.50;;;;;;4843013;29;20385;-61
2021/08/29 10:15:21;;;;;;;6.38;4.80;;;35.60;45.20;;;;;;4843045;29;20052;-61
2021/08/29 10:17:50;;;;;;;6.53;4.65;;;35.80;45.10;;;;;;4842988;29;20050;-60
2021/08/29 10:20:17;;;;;;;6.13;4.97;;;36.00;45.00;;;;;;4843076;29;20038;-60
2021/08/29 10:22:43;;;;;;;6.20;4.70;;;36.20;44.80;;;;;;4842942;29;20113;-61
2021/08/29 10:25:10;;;;;;;5.85;4.80;;;36.40;44.50;;;;;;4839629;29;20034;-62
2021/08/29 10:27:39;;;;;;;5.93;4.50;;;36.50;44.20;;;;;;4826410;29;20112;-61
2021/08/29 10:30:08;;;;;;;5.90;4.70;;;36.80;44.00;;;;;;4842786;29;20113;-62
2021/08/29 10:32:45;;;;;;;5.50;4.28;;;36.90;43.70;;;;;;4843063;29;20049;-61
2021/08/29 10:35:12;;;;;;;5.35;4.22;;;36.90;43.20;;;;;;4842622;29;20030;-61
2021/08/29 10:37:40;;;;;;;5.50;4.32;;;37.00;43.30;;;;;;4842426;29;20057;-61
2021/08/29 10:40:07;;;;;;;6.18;4.88;;;37.20;43.40;;;;;;4842432;29;20042;-61
2021/08/29 10:42:41;;;;;;;6.13;4.90;;;37.30;43.30;;;;;;4837511;29;20060;-62
2021/08/29 10:45:08;;;;;;;6.10;4.80;;;37.50;43.10;;;;;;4842222;29;20113;-62
2021/08/29 10:47:34;;;;;;;5.80;4.57;;;37.60;43.00;;;;;;4842385;29;20037;-61
2021/08/29 10:50:02;;;;;;;6.38;5.10;;;37.90;42.90;;;;;;4842411;29;20030;-61
2021/08/29 10:52:36;;;;;;;5.90;4.80;;;38.10;42.80;;;;;;4842007;29;20030;-61
2021/08/29 10:55:08;;;;;;;6.40;5.07;;;38.40;42.20;;;;;;4842097;29;20105;-62
2021/08/29 10:57:41;;;;;;;6.07;4.78;;;38.70;42.50;;;;;;4839613;29;20038;-62
2021/08/29 11:00:27;;;;;;;6.65;4.70;;;39.10;42.40;;;;;;4841324;29;20116;-61
2021/08/29 11:02:53;;;;;;;5.95;4.47;;;39.40;40.80;;;;;;4823527;29;20061;-62
2021/08/29 11:05:27;;;;;;;5.60;4.55;;;39.70;42.10;;;;;;4835505;29;20057;-62
2021/08/29 11:07:54;;;;;;;7.18;4.82;;;39.90;40.80;;;;;;4841829;29;20037;-61
2021/08/29 11:10:41;;;;;;;5.85;4.78;;;40.00;41.50;;;;;;4842168;29;20082;-60
2021/08/29 11:13:33;;;;;;;5.90;4.65;;;40.30;39.50;;;;;;4823530;29;20034;-61
2021/08/29 11:16:09;;;;;;;5.55;4.50;;;40.70;40.90;;;;;;4841487;29;20037;-61
2021/08/29 11:19:00;;;;;;;6.22;4.88;;;41.00;40.10;;;;;;4841382;29;20042;-61
2021/08/29 11:21:54;;;;;;;5.70;4.20;;;41.40;38.90;;;;;;4841882;29;20034;-61
2021/08/29 11:24:49;;;;;;;5.63;4.53;;;41.80;38.40;;;;;;4841692;29;20026;-62
2021/08/29 11:27:48;;;;;;;5.22;4.22;;;42.20;37.70;;;;;;4841856;29;20034;-63
2021/08/29 11:30:33;;;;;;;5.80;4.20;;;42.50;37.00;;;;;;4811696;29;20030;-63
2021/08/29 11:33:01;;;;;;;5.50;4.22;;;42.80;39.30;;;;;;4839083;29;20033;-61
2021/08/29 11:35:56;;;;;;;6.00;4.80;;;42.80;38.90;;;;;;4851023;29;20027;-61
2021/08/29 11:38:22;;;;;;;6.97;5.05;;;42.90;38.50;;;;;;4833071;29;20037;-61
2021/08/29 11:40:53;;;;;;;5.82;4.72;;;42.80;38.40;;;;;;4840972;29;20082;-61
2021/08/29 11:43:26;;;;;;;6.10;5.00;;;42.70;38.00;;;;;;4840957;29;20435;-61
2021/08/29 11:46:15;;;;;;;5.90;4.65;;;42.50;38.10;;;;;;4840749;29;20026;-61
2021/08/29 11:48:51;;;;;;;6.00;4.90;;;42.00;36.70;;;;;;4837316;29;20030;-61
2021/08/29 11:51:32;;;;;;;5.80;4.78;;;41.50;37.80;;;;;;4833604;29;20497;-63
2021/08/29 11:54:03;;;;;;;6.05;5.30;;;40.90;37.50;;;;;;4841335;29;20073;-62
2021/08/29 11:56:31;;;;;;;;;;;40.50;38.40;;;;;;4841797;29;20094;-61
2021/08/29 11:59:00;;;;;;;6.50;5.10;;;40.20;37.60;;;;;;4841419;29;20313;-61
2021/08/29 12:01:28;;;;;;;6.85;5.28;;;40.20;39.30;;;;;;4840812;29;20050;-62
2021/08/29 12:03:56;;;;;;;6.00;4.70;;;40.50;39.40;;;;;;4841062;29;20050;-62
2021/08/29 12:06:21;;;;;;;6.32;5.25;;;40.70;39.10;;;;;;4840958;29;20038;-61
2021/08/29 12:09:12;;;;;;;6.78;5.50;;;40.90;39.00;;;;;;4838363;29;20022;-61
2021/08/29 12:11:40;;;;;;;6.13;4.97;;;41.10;37.70;;;;;;4841096;29;20026;-61
2021/08/29 12:14:18;;;;;;;6.30;5.10;;;41.20;38.70;;;;;;4841164;29;20038;-61
2021/08/29 12:16:50;;;;;;;6.30;5.40;;;41.40;37.70;;;;;;4841107;29;20034;-61
2021/08/29 12:19:19;;;;;;;6.03;5.07;;;41.70;38.50;;;;;;4840730;29;20050;-62
2021/08/29 12:21:46;;;;;;;6.90;5.30;;;41.80;38.00;;;;;;4839663;29;20050;-61
2021/08/29 12:24:13;;;;;;;6.70;5.00;;;41.90;37.90;;;;;;4841193;29;20112;-62
2021/08/29 12:26:40;;;;;;;6.60;5.07;;;41.90;37.70;;;;;;4840472;29;20162;-61
2021/08/29 12:29:07;;;;;;;6.30;5.43;;;41.90;37.70;;;;;;4824838;29;20117;-62
2021/08/29 12:31:40;;;;;;;5.80;5.13;;;41.90;37.70;;;;;;4835192;29;20026;-61
2021/08/29 12:34:07;;;;;;;6.57;4.88;;;41.90;37.30;;;;;;4841263;29;20041;-64
2021/08/29 12:36:34;;;;;;;6.20;5.25;;;41.80;37.50;;;;;;4841188;29;20042;-64
2021/08/29 12:39:02;;;;;;;5.95;5.10;;;41.80;37.50;;;;;;4841370;29;20155;-62
2021/08/29 12:41:27;;;;;;;6.00;5.32;;;41.70;37.50;;;;;;4841104;29;20048;-64
2021/08/29 12:44:04;;;;;;;6.22;5.50;;;41.80;37.60;;;;;;4851241;29;20919;-62
2021/08/29 12:46:30;;;;;;;6.70;5.25;;;41.70;37.00;;;;;;4859398;29;20113;-61
2021/08/29 12:48:56;;;;;;;5.70;4.95;;;41.50;37.40;;;;;;4859233;29;20045;-63
2021/08/29 12:51:24;;;;;;;7.00;5.90;;;41.30;37.40;;;;;;4859149;29;20096;-61